sensor_id;sensor_type;location;lat;lon;timestamp;P1;durP1;ratioP1;P2;durP2;ratioP2
75616;SDS011;64200;55.426;37.758;2023-04-03T00:03:28;5.95;;;3.60;;
75616;SDS011;64200;55.426;37.758;2023-04-03T00:08:29;7.85;;;4.22;;
75616;SDS011;64200;55.426;37.758;2023-04-03T00:13:32;8.88;;;4.35;;
75616;SDS011;64200;55.426;37.758;2023-04-03T00:18:34;8.20;;;3.38;;
75616;SDS011;64200;55.426;37.758;2023-04-03T00:23:35;4.93;;;3.13;;
75616;SDS011;64200;55.426;37.758;2023-04-03T00:28:35;6.60;;;3.67;;
75616;SDS011;64200;55.426;37.758;2023-04-03T00:33:36;7.77;;;4.07;;
75616;SDS011;64200;55.426;37.758;2023-04-03T00:38:36;6.47;;;3.73;;
75616;SDS011;64200;55.426;37.758;2023-04-03T00:43:37;6.85;;;3.45;;
75616;SDS011;64200;55.426;37.758;2023-04-03T00:48:44;9.35;;;4.07;;
75616;SDS011;64200;55.426;37.758;2023-04-03T00:53:48;6.82;;;4.00;;
75616;SDS011;64200;55.426;37.758;2023-04-03T00:58:59;7.05;;;4.07;;
75616;SDS011;64200;55.426;37.758;2023-04-03T01:04:04;9.73;;;5.25;;
75616;SDS011;64200;55.426;37.758;2023-04-03T01:09:05;6.63;;;4.55;;
75616;SDS011;64200;55.426;37.758;2023-04-03T01:14:06;7.18;;;4.40;;
75616;SDS011;64200;55.426;37.758;2023-04-03T01:19:07;9.23;;;4.70;;
75616;SDS011;64200;55.426;37.758;2023-04-03T01:24:22;6.78;;;4.28;;
75616;SDS011;64200;55.426;37.758;2023-04-03T01:29:29;8.40;;;4.60;;
75616;SDS011;64200;55.426;37.758;2023-04-03T01:34:29;8.50;;;4.60;;
75616;SDS011;64200;55.426;37.758;2023-04-03T01:39:30;10.43;;;4.63;;
75616;SDS011;64200;55.426;37.758;2023-04-03T01:44:31;11.98;;;5.63;;
75616;SDS011;64200;55.426;37.758;2023-04-03T01:49:31;11.20;;;4.83;;
75616;SDS011;64200;55.426;37.758;2023-04-03T01:54:32;9.07;;;5.13;;
75616;SDS011;64200;55.426;37.758;2023-04-03T01:59:32;7.93;;;4.10;;
75616;SDS011;64200;55.426;37.758;2023-04-03T02:04:33;11.27;;;5.28;;
75616;SDS011;64200;55.426;37.758;2023-04-03T02:09:34;7.68;;;5.10;;
75616;SDS011;64200;55.426;37.758;2023-04-03T02:14:34;10.25;;;5.18;;
75616;SDS011;64200;55.426;37.758;2023-04-03T02:19:35;8.37;;;5.20;;
75616;SDS011;64200;55.426;37.758;2023-04-03T02:24:36;10.82;;;5.53;;
75616;SDS011;64200;55.426;37.758;2023-04-03T02:29:39;6.55;;;4.07;;
75616;SDS011;64200;55.426;37.758;2023-04-03T02:34:39;9.40;;;5.70;;
75616;SDS011;64200;55.426;37.758;2023-04-03T02:39:40;10.38;;;5.18;;
75616;SDS011;64200;55.426;37.758;2023-04-03T02:44:40;10.83;;;5.20;;
75616;SDS011;64200;55.426;37.758;2023-04-03T02:49:41;12.03;;;5.30;;
75616;SDS011;64200;55.426;37.758;2023-04-03T02:54:43;9.80;;;5.57;;
75616;SDS011;64200;55.426;37.758;2023-04-03T02:59:44;8.55;;;5.05;;
75616;SDS011;64200;55.426;37.758;2023-04-03T03:04:45;9.27;;;5.00;;
75616;SDS011;64200;55.426;37.758;2023-04-03T03:09:45;10.10;;;5.63;;
75616;SDS011;64200;55.426;37.758;2023-04-03T03:14:46;7.43;;;4.50;;
75616;SDS011;64200;55.426;37.758;2023-04-03T03:19:46;10.83;;;5.43;;
75616;SDS011;64200;55.426;37.758;2023-04-03T03:24:46;8.40;;;4.93;;
75616;SDS011;64200;55.426;37.758;2023-04-03T03:29:47;8.70;;;4.27;;
75616;SDS011;64200;55.426;37.758;2023-04-03T03:34:47;14.20;;;4.90;;
75616;SDS011;64200;55.426;37.758;2023-04-03T03:39:48;9.63;;;4.70;;
75616;SDS011;64200;55.426;37.758;2023-04-03T03:44:48;8.10;;;4.40;;
75616;SDS011;64200;55.426;37.758;2023-04-03T03:49:49;9.20;;;4.20;;
75616;SDS011;64200;55.426;37.758;2023-04-03T03:54:49;7.72;;;4.43;;
75616;SDS011;64200;55.426;37.758;2023-04-03T03:59:50;8.87;;;4.53;;
75616;SDS011;64200;55.426;37.758;2023-04-03T04:04:51;6.50;;;4.63;;
75616;SDS011;64200;55.426;37.758;2023-04-03T04:09:54;16.10;;;5.00;;
75616;SDS011;64200;55.426;37.758;2023-04-03T04:14:55;10.73;;;4.50;;
75616;SDS011;64200;55.426;37.758;2023-04-03T04:19:55;7.93;;;4.63;;
75616;SDS011;64200;55.426;37.758;2023-04-03T04:24:56;4.78;;;3.40;;
75616;SDS011;64200;55.426;37.758;2023-04-03T04:29:56;7.23;;;3.67;;
75616;SDS011;64200;55.426;37.758;2023-04-03T04:34:57;9.10;;;5.07;;
75616;SDS011;64200;55.426;37.758;2023-04-03T04:39:57;8.87;;;4.03;;
75616;SDS011;64200;55.426;37.758;2023-04-03T04:44:58;9.60;;;3.70;;
75616;SDS011;64200;55.426;37.758;2023-04-03T04:49:58;8.73;;;4.20;;
75616;SDS011;64200;55.426;37.758;2023-04-03T04:54:59;9.05;;;4.55;;
75616;SDS011;64200;55.426;37.758;2023-04-03T05:00:00;8.35;;;4.07;;
75616;SDS011;64200;55.426;37.758;2023-04-03T05:05:00;6.33;;;4.30;;
75616;SDS011;64200;55.426;37.758;2023-04-03T05:10:01;6.73;;;3.70;;
75616;SDS011;64200;55.426;37.758;2023-04-03T05:15:03;7.13;;;3.65;;
75616;SDS011;64200;55.426;37.758;2023-04-03T05:20:04;14.27;;;4.82;;
75616;SDS011;64200;55.426;37.758;2023-04-03T05:25:06;5.95;;;3.60;;
75616;SDS011;64200;55.426;37.758;2023-04-03T05:30:07;9.77;;;4.38;;
75616;SDS011;64200;55.426;37.758;2023-04-03T05:35:08;8.02;;;4.25;;
75616;SDS011;64200;55.426;37.758;2023-04-03T05:40:09;6.20;;;4.22;;
75616;SDS011;64200;55.426;37.758;2023-04-03T05:45:09;9.93;;;4.80;;
75616;SDS011;64200;55.426;37.758;2023-04-03T05:50:10;10.07;;;4.85;;
75616;SDS011;64200;55.426;37.758;2023-04-03T05:55:11;17.17;;;4.55;;
75616;SDS011;64200;55.426;37.758;2023-04-03T06:00:15;15.27;;;4.55;;
75616;SDS011;64200;55.426;37.758;2023-04-03T06:05:16;11.18;;;5.40;;
75616;SDS011;64200;55.426;37.758;2023-04-03T06:10:17;13.40;;;4.75;;
75616;SDS011;64200;55.426;37.758;2023-04-03T06:15:18;17.80;;;5.53;;
75616;SDS011;64200;55.426;37.758;2023-04-03T06:20:18;9.38;;;4.57;;
75616;SDS011;64200;55.426;37.758;2023-04-03T06:25:19;13.48;;;5.13;;
75616;SDS011;64200;55.426;37.758;2023-04-03T06:30:21;8.95;;;5.03;;
75616;SDS011;64200;55.426;37.758;2023-04-03T06:35:21;10.88;;;4.70;;
75616;SDS011;64200;55.426;37.758;2023-04-03T06:40:24;12.77;;;5.40;;
75616;SDS011;64200;55.426;37.758;2023-04-03T06:45:26;20.98;;;7.53;;
75616;SDS011;64200;55.426;37.758;2023-04-03T06:50:27;13.43;;;5.05;;
75616;SDS011;64200;55.426;37.758;2023-04-03T06:55:28;15.30;;;6.00;;
75616;SDS011;64200;55.426;37.758;2023-04-03T07:00:28;11.63;;;6.47;;
75616;SDS011;64200;55.426;37.758;2023-04-03T07:05:30;10.60;;;5.80;;
75616;SDS011;64200;55.426;37.758;2023-04-03T07:10:30;13.13;;;5.32;;
75616;SDS011;64200;55.426;37.758;2023-04-03T07:15:31;12.82;;;5.93;;
75616;SDS011;64200;55.426;37.758;2023-04-03T07:20:32;14.32;;;5.63;;
75616;SDS011;64200;55.426;37.758;2023-04-03T07:25:33;11.48;;;6.25;;
75616;SDS011;64200;55.426;37.758;2023-04-03T07:30:34;18.75;;;7.63;;
75616;SDS011;64200;55.426;37.758;2023-04-03T07:35:34;15.48;;;6.10;;
75616;SDS011;64200;55.426;37.758;2023-04-03T07:40:35;12.73;;;5.80;;
75616;SDS011;64200;55.426;37.758;2023-04-03T07:45:36;17.70;;;6.70;;
75616;SDS011;64200;55.426;37.758;2023-04-03T07:50:37;10.23;;;6.28;;
75616;SDS011;64200;55.426;37.758;2023-04-03T07:55:39;10.48;;;5.43;;
75616;SDS011;64200;55.426;37.758;2023-04-03T08:00:43;8.57;;;5.85;;
75616;SDS011;64200;55.426;37.758;2023-04-03T08:05:45;13.52;;;6.57;;
75616;SDS011;64200;55.426;37.758;2023-04-03T08:10:48;12.23;;;6.22;;
75616;SDS011;64200;55.426;37.758;2023-04-03T08:15:52;10.82;;;7.05;;
75616;SDS011;64200;55.426;37.758;2023-04-03T08:20:52;12.00;;;7.10;;
75616;SDS011;64200;55.426;37.758;2023-04-03T08:25:53;12.63;;;7.60;;
75616;SDS011;64200;55.426;37.758;2023-04-03T08:30:53;11.63;;;8.20;;
75616;SDS011;64200;55.426;37.758;2023-04-03T08:35:54;11.32;;;6.43;;
75616;SDS011;64200;55.426;37.758;2023-04-03T08:46:22;12.82;;;5.90;;
75616;SDS011;64200;55.426;37.758;2023-04-03T08:51:29;11.00;;;5.90;;
75616;SDS011;64200;55.426;37.758;2023-04-03T08:56:30;16.42;;;7.05;;
75616;SDS011;64200;55.426;37.758;2023-04-03T09:01:34;14.15;;;6.13;;
75616;SDS011;64200;55.426;37.758;2023-04-03T09:06:38;9.10;;;5.53;;
75616;SDS011;64200;55.426;37.758;2023-04-03T09:16:56;9.05;;;4.85;;
75616;SDS011;64200;55.426;37.758;2023-04-03T09:22:00;11.40;;;5.28;;
75616;SDS011;64200;55.426;37.758;2023-04-03T09:27:11;6.93;;;4.30;;
75616;SDS011;64200;55.426;37.758;2023-04-03T09:32:25;6.95;;;3.97;;
75616;SDS011;64200;55.426;37.758;2023-04-03T09:37:36;10.70;;;4.95;;
75616;SDS011;64200;55.426;37.758;2023-04-03T09:42:45;7.50;;;4.30;;
75616;SDS011;64200;55.426;37.758;2023-04-03T09:47:45;5.85;;;3.90;;
75616;SDS011;64200;55.426;37.758;2023-04-03T09:52:47;5.18;;;2.72;;
75616;SDS011;64200;55.426;37.758;2023-04-03T09:57:52;5.05;;;2.90;;
75616;SDS011;64200;55.426;37.758;2023-04-03T10:02:54;6.07;;;2.95;;
75616;SDS011;64200;55.426;37.758;2023-04-03T10:08:31;5.05;;;3.08;;
75616;SDS011;64200;55.426;37.758;2023-04-03T10:13:34;6.95;;;4.10;;
75616;SDS011;64200;55.426;37.758;2023-04-03T10:23:51;4.50;;;2.90;;
75616;SDS011;64200;55.426;37.758;2023-04-03T10:29:19;8.10;;;4.28;;
75616;SDS011;64200;55.426;37.758;2023-04-03T10:34:24;7.93;;;3.90;;
75616;SDS011;64200;55.426;37.758;2023-04-03T10:39:51;7.18;;;4.15;;
75616;SDS011;64200;55.426;37.758;2023-04-03T10:55:51;4.20;;;3.15;;
75616;SDS011;64200;55.426;37.758;2023-04-03T11:01:08;8.23;;;3.97;;
75616;SDS011;64200;55.426;37.758;2023-04-03T11:06:13;6.93;;;3.67;;
75616;SDS011;64200;55.426;37.758;2023-04-03T11:11:21;6.70;;;3.45;;
75616;SDS011;64200;55.426;37.758;2023-04-03T11:16:29;5.72;;;3.13;;
75616;SDS011;64200;55.426;37.758;2023-04-03T11:21:41;8.05;;;3.85;;
75616;SDS011;64200;55.426;37.758;2023-04-03T11:26:46;6.55;;;3.50;;
75616;SDS011;64200;55.426;37.758;2023-04-03T11:36:56;6.85;;;3.80;;
75616;SDS011;64200;55.426;37.758;2023-04-03T11:47:44;5.82;;;3.22;;
75616;SDS011;64200;55.426;37.758;2023-04-03T12:02:59;7.32;;;3.20;;
75616;SDS011;64200;55.426;37.758;2023-04-03T12:13:25;7.45;;;4.13;;
75616;SDS011;64200;55.426;37.758;2023-04-03T12:29:25;11.15;;;4.25;;
75616;SDS011;64200;55.426;37.758;2023-04-03T12:34:44;6.13;;;3.03;;
75616;SDS011;64200;55.426;37.758;2023-04-03T12:40:04;10.60;;;4.07;;
75616;SDS011;64200;55.426;37.758;2023-04-03T12:45:28;11.35;;;4.95;;
75616;SDS011;64200;55.426;37.758;2023-04-03T12:50:38;11.02;;;4.30;;
75616;SDS011;64200;55.426;37.758;2023-04-03T12:55:41;10.40;;;4.35;;
75616;SDS011;64200;55.426;37.758;2023-04-03T13:00:41;10.95;;;3.95;;
75616;SDS011;64200;55.426;37.758;2023-04-03T13:05:44;6.90;;;3.75;;
75616;SDS011;64200;55.426;37.758;2023-04-03T13:10:55;9.68;;;4.75;;
75616;SDS011;64200;55.426;37.758;2023-04-03T13:21:14;12.02;;;4.38;;
75616;SDS011;64200;55.426;37.758;2023-04-03T13:26:17;11.68;;;4.25;;
75616;SDS011;64200;55.426;37.758;2023-04-03T13:31:22;8.95;;;4.70;;
75616;SDS011;64200;55.426;37.758;2023-04-03T13:36:30;11.10;;;3.92;;
75616;SDS011;64200;55.426;37.758;2023-04-03T13:41:37;11.88;;;4.05;;
75616;SDS011;64200;55.426;37.758;2023-04-03T13:46:40;10.10;;;5.07;;
75616;SDS011;64200;55.426;37.758;2023-04-03T13:51:41;6.35;;;3.50;;
75616;SDS011;64200;55.426;37.758;2023-04-03T13:56:41;6.67;;;3.20;;
75616;SDS011;64200;55.426;37.758;2023-04-03T14:01:46;14.95;;;4.85;;
75616;SDS011;64200;55.426;37.758;2023-04-03T14:06:48;7.88;;;3.05;;
75616;SDS011;64200;55.426;37.758;2023-04-03T14:11:50;5.93;;;2.92;;
75616;SDS011;64200;55.426;37.758;2023-04-03T14:16:55;10.23;;;4.57;;
75616;SDS011;64200;55.426;37.758;2023-04-03T14:22:00;10.77;;;6.15;;
75616;SDS011;64200;55.426;37.758;2023-04-03T14:27:24;12.38;;;4.95;;
75616;SDS011;64200;55.426;37.758;2023-04-03T14:32:27;8.90;;;3.90;;
75616;SDS011;64200;55.426;37.758;2023-04-03T14:37:28;7.03;;;3.63;;
75616;SDS011;64200;55.426;37.758;2023-04-03T14:42:32;8.65;;;3.90;;
75616;SDS011;64200;55.426;37.758;2023-04-03T14:52:37;15.30;;;6.63;;
75616;SDS011;64200;55.426;37.758;2023-04-03T14:57:37;11.02;;;5.03;;
75616;SDS011;64200;55.426;37.758;2023-04-03T15:02:39;16.08;;;7.15;;
75616;SDS011;64200;55.426;37.758;2023-04-03T15:07:54;13.70;;;5.57;;
75616;SDS011;64200;55.426;37.758;2023-04-03T15:12:57;20.85;;;7.43;;
75616;SDS011;64200;55.426;37.758;2023-04-03T15:17:57;15.10;;;4.95;;
75616;SDS011;64200;55.426;37.758;2023-04-03T15:22:59;7.72;;;4.28;;
75616;SDS011;64200;55.426;37.758;2023-04-03T15:28:01;11.35;;;4.40;;
75616;SDS011;64200;55.426;37.758;2023-04-03T15:33:02;8.95;;;5.07;;
75616;SDS011;64200;55.426;37.758;2023-04-03T15:38:03;10.63;;;5.25;;
75616;SDS011;64200;55.426;37.758;2023-04-03T15:43:05;13.57;;;4.97;;
75616;SDS011;64200;55.426;37.758;2023-04-03T15:48:06;9.95;;;3.97;;
75616;SDS011;64200;55.426;37.758;2023-04-03T15:53:08;10.60;;;3.97;;
75616;SDS011;64200;55.426;37.758;2023-04-03T15:58:09;10.80;;;4.53;;
75616;SDS011;64200;55.426;37.758;2023-04-03T16:03:15;13.90;;;5.82;;
75616;SDS011;64200;55.426;37.758;2023-04-03T16:08:18;13.60;;;4.65;;
75616;SDS011;64200;55.426;37.758;2023-04-03T16:13:19;14.02;;;5.03;;
75616;SDS011;64200;55.426;37.758;2023-04-03T16:18:19;9.13;;;5.13;;
75616;SDS011;64200;55.426;37.758;2023-04-03T16:23:20;14.80;;;6.72;;
75616;SDS011;64200;55.426;37.758;2023-04-03T16:28:20;18.30;;;8.43;;
75616;SDS011;64200;55.426;37.758;2023-04-03T16:33:21;13.67;;;7.50;;
75616;SDS011;64200;55.426;37.758;2023-04-03T16:38:24;11.63;;;5.30;;
75616;SDS011;64200;55.426;37.758;2023-04-03T16:43:25;17.70;;;5.50;;
75616;SDS011;64200;55.426;37.758;2023-04-03T16:48:26;13.35;;;6.55;;
75616;SDS011;64200;55.426;37.758;2023-04-03T16:53:30;12.93;;;4.97;;
75616;SDS011;64200;55.426;37.758;2023-04-03T16:58:31;20.77;;;6.55;;
75616;SDS011;64200;55.426;37.758;2023-04-03T17:03:32;17.10;;;7.00;;
75616;SDS011;64200;55.426;37.758;2023-04-03T17:08:33;13.27;;;6.30;;
75616;SDS011;64200;55.426;37.758;2023-04-03T17:13:34;16.92;;;7.43;;
75616;SDS011;64200;55.426;37.758;2023-04-03T17:18:35;15.00;;;7.43;;
75616;SDS011;64200;55.426;37.758;2023-04-03T17:23:36;18.05;;;6.97;;
75616;SDS011;64200;55.426;37.758;2023-04-03T17:28:39;17.88;;;8.18;;
75616;SDS011;64200;55.426;37.758;2023-04-03T17:33:40;14.93;;;7.70;;
75616;SDS011;64200;55.426;37.758;2023-04-03T17:38:41;12.98;;;7.22;;
75616;SDS011;64200;55.426;37.758;2023-04-03T17:43:41;16.23;;;7.40;;
75616;SDS011;64200;55.426;37.758;2023-04-03T17:48:42;14.85;;;7.65;;
75616;SDS011;64200;55.426;37.758;2023-04-03T17:53:43;12.88;;;6.53;;
75616;SDS011;64200;55.426;37.758;2023-04-03T17:58:43;15.40;;;6.65;;
75616;SDS011;64200;55.426;37.758;2023-04-03T18:03:45;16.65;;;7.28;;
75616;SDS011;64200;55.426;37.758;2023-04-03T18:08:48;16.52;;;7.57;;
75616;SDS011;64200;55.426;37.758;2023-04-03T18:13:51;13.38;;;6.88;;
75616;SDS011;64200;55.426;37.758;2023-04-03T18:18:54;11.40;;;6.00;;
75616;SDS011;64200;55.426;37.758;2023-04-03T18:23:54;14.87;;;7.13;;
75616;SDS011;64200;55.426;37.758;2023-04-03T18:28:56;11.65;;;6.50;;
75616;SDS011;64200;55.426;37.758;2023-04-03T18:34:00;7.97;;;5.10;;
75616;SDS011;64200;55.426;37.758;2023-04-03T18:39:01;11.18;;;5.60;;
75616;SDS011;64200;55.426;37.758;2023-04-03T18:44:03;11.13;;;5.97;;
75616;SDS011;64200;55.426;37.758;2023-04-03T18:49:07;12.75;;;5.82;;
75616;SDS011;64200;55.426;37.758;2023-04-03T18:54:09;10.77;;;7.07;;
75616;SDS011;64200;55.426;37.758;2023-04-03T18:59:09;11.57;;;6.70;;
75616;SDS011;64200;55.426;37.758;2023-04-03T19:04:10;9.00;;;6.23;;
75616;SDS011;64200;55.426;37.758;2023-04-03T19:09:10;8.98;;;5.55;;
75616;SDS011;64200;55.426;37.758;2023-04-03T19:14:11;10.70;;;6.38;;
75616;SDS011;64200;55.426;37.758;2023-04-03T19:19:12;15.97;;;6.57;;
75616;SDS011;64200;55.426;37.758;2023-04-03T19:24:12;11.10;;;6.88;;
75616;SDS011;64200;55.426;37.758;2023-04-03T19:29:13;11.27;;;6.65;;
75616;SDS011;64200;55.426;37.758;2023-04-03T19:34:13;11.43;;;7.57;;
75616;SDS011;64200;55.426;37.758;2023-04-03T19:39:14;13.98;;;7.25;;
75616;SDS011;64200;55.426;37.758;2023-04-03T19:44:15;10.90;;;6.93;;
75616;SDS011;64200;55.426;37.758;2023-04-03T19:49:15;13.13;;;7.50;;
75616;SDS011;64200;55.426;37.758;2023-04-03T19:54:18;13.55;;;7.72;;
75616;SDS011;64200;55.426;37.758;2023-04-03T19:59:19;14.35;;;7.78;;
75616;SDS011;64200;55.426;37.758;2023-04-03T20:04:20;12.90;;;8.33;;
75616;SDS011;64200;55.426;37.758;2023-04-03T20:09:20;17.40;;;9.80;;
75616;SDS011;64200;55.426;37.758;2023-04-03T20:14:21;16.67;;;10.38;;
75616;SDS011;64200;55.426;37.758;2023-04-03T20:19:21;18.27;;;9.70;;
75616;SDS011;64200;55.426;37.758;2023-04-03T20:24:25;14.82;;;10.38;;
75616;SDS011;64200;55.426;37.758;2023-04-03T20:29:27;16.73;;;10.23;;
75616;SDS011;64200;55.426;37.758;2023-04-03T20:34:28;18.95;;;10.77;;
75616;SDS011;64200;55.426;37.758;2023-04-03T20:39:28;16.92;;;10.63;;
75616;SDS011;64200;55.426;37.758;2023-04-03T20:44:29;21.58;;;12.57;;
75616;SDS011;64200;55.426;37.758;2023-04-03T20:49:31;19.33;;;10.75;;
75616;SDS011;64200;55.426;37.758;2023-04-03T20:54:31;20.67;;;10.80;;
75616;SDS011;64200;55.426;37.758;2023-04-03T20:59:33;26.67;;;11.20;;
75616;SDS011;64200;55.426;37.758;2023-04-03T21:04:40;24.20;;;11.38;;
75616;SDS011;64200;55.426;37.758;2023-04-03T21:20:54;22.45;;;11.02;;
75616;SDS011;64200;55.426;37.758;2023-04-03T21:26:03;26.17;;;11.57;;
75616;SDS011;64200;55.426;37.758;2023-04-03T21:31:03;26.30;;;11.63;;
75616;SDS011;64200;55.426;37.758;2023-04-03T21:36:03;20.70;;;11.67;;
75616;SDS011;64200;55.426;37.758;2023-04-03T21:41:04;20.30;;;11.35;;
75616;SDS011;64200;55.426;37.758;2023-04-03T21:46:05;22.92;;;11.82;;
75616;SDS011;64200;55.426;37.758;2023-04-03T21:51:05;25.00;;;11.20;;
75616;SDS011;64200;55.426;37.758;2023-04-03T21:56:06;21.88;;;10.80;;
75616;SDS011;64200;55.426;37.758;2023-04-03T22:01:10;19.08;;;11.73;;
75616;SDS011;64200;55.426;37.758;2023-04-03T22:06:13;18.55;;;11.70;;
75616;SDS011;64200;55.426;37.758;2023-04-03T22:11:15;21.13;;;12.70;;
75616;SDS011;64200;55.426;37.758;2023-04-03T22:16:16;24.08;;;14.00;;
75616;SDS011;64200;55.426;37.758;2023-04-03T22:21:16;22.80;;;13.97;;
75616;SDS011;64200;55.426;37.758;2023-04-03T22:26:17;25.48;;;15.45;;
75616;SDS011;64200;55.426;37.758;2023-04-03T22:31:17;24.77;;;14.90;;
75616;SDS011;64200;55.426;37.758;2023-04-03T22:36:19;23.67;;;15.00;;
75616;SDS011;64200;55.426;37.758;2023-04-03T22:41:19;25.10;;;15.32;;
75616;SDS011;64200;55.426;37.758;2023-04-03T22:46:21;24.08;;;15.43;;
75616;SDS011;64200;55.426;37.758;2023-04-03T22:51:21;30.38;;;16.60;;
75616;SDS011;64200;55.426;37.758;2023-04-03T22:56:22;26.67;;;16.20;;
75616;SDS011;64200;55.426;37.758;2023-04-03T23:01:22;33.07;;;19.57;;
75616;SDS011;64200;55.426;37.758;2023-04-03T23:06:26;33.78;;;19.55;;
75616;SDS011;64200;55.426;37.758;2023-04-03T23:11:27;35.00;;;18.48;;
75616;SDS011;64200;55.426;37.758;2023-04-03T23:16:27;32.03;;;19.52;;
75616;SDS011;64200;55.426;37.758;2023-04-03T23:21:28;34.70;;;19.07;;
75616;SDS011;64200;55.426;37.758;2023-04-03T23:26:28;33.37;;;17.63;;
75616;SDS011;64200;55.426;37.758;2023-04-03T23:31:29;29.90;;;17.57;;
75616;SDS011;64200;55.426;37.758;2023-04-03T23:36:30;25.67;;;14.40;;
75616;SDS011;64200;55.426;37.758;2023-04-03T23:41:30;24.17;;;15.30;;
75616;SDS011;64200;55.426;37.758;2023-04-03T23:46:31;25.80;;;15.32;;
75616;SDS011;64200;55.426;37.758;2023-04-03T23:51:32;28.13;;;16.80;;
75616;SDS011;64200;55.426;37.758;2023-04-03T23:56:32;28.15;;;15.27;;
